Time;durP1;ratioP1;P1;durP2;ratioP2;P2;SDS_P1;SDS_P2;PMS_P1;PMS_P2;Temp;Humidity;BMP_temperature;BMP_pressure;BME280_temperature;BME280_humidity;BME280_pressure;Samples;Min_cycle;Max_cycle;Signal;HPM_P1;HPM_P2
2023/08/28 00:06:30;;;;;;;6.72;5.40;;;;;;;26.98;54.17;101228.28;21039241;28;20040;-59
2023/08/28 00:16:32;;;;;;;5.95;5.35;;;;;;;26.90;53.68;101219.81;21082250;28;20040;-59
2023/08/28 00:26:33;;;;;;;7.07;4.90;;;;;;;26.94;51.61;101223.63;21062115;28;20044;-60
2023/08/28 00:36:34;;;;;;;7.07;4.95;;;;;;;26.70;50.81;101272.41;21086434;28;20040;-62
2023/08/28 00:46:36;;;;;;;6.53;4.32;;;;;;;26.53;50.03;101280.66;21078103;28;20040;-62
2023/08/28 00:56:39;;;;;;;9.57;5.07;;;;;;;26.32;49.58;101302.63;21085649;28;20032;-59
2023/08/28 01:06:46;;;;;;;6.13;4.45;;;;;;;26.26;49.27;101340.34;21084554;28;20043;-60
2023/08/28 01:16:49;;;;;;;4.93;4.43;;;;;;;26.20;48.80;101350.78;21043885;28;20048;-59
2023/08/28 01:26:51;;;;;;;5.95;4.50;;;;;;;26.10;48.46;101346.19;21081757;28;20043;-59
2023/08/28 01:37:00;;;;;;;7.07;4.63;;;;;;;26.06;48.31;101370.38;21032150;28;20407;-59
2023/08/28 01:47:03;;;;;;;6.47;4.38;;;;;;;25.96;48.57;101352.91;21079967;28;20077;-60
2023/08/28 01:57:04;;;;;;;4.78;4.32;;;;;;;25.99;48.15;101352.31;21080439;28;20036;-59
2023/08/28 02:07:08;;;;;;;5.30;3.85;;;;;;;25.91;47.81;101369.81;21060551;28;20024;-60
2023/08/28 02:17:10;;;;;;;4.70;4.25;;;;;;;25.85;48.07;101371.88;20995321;28;20044;-59
2023/08/28 02:27:12;;;;;;;5.45;4.20;;;;;;;25.69;47.43;101331.16;21026581;28;20117;-59
2023/08/28 02:37:13;;;;;;;5.05;4.03;;;;;;;25.75;47.36;101358.81;20994255;28;20052;-59
2023/08/28 02:47:14;;;;;;;4.95;4.25;;;;;;;25.56;47.64;101338.34;20993588;28;20459;-59
2023/08/28 02:57:16;;;;;;;5.28;3.80;;;;;;;25.73;47.53;101377.91;20993417;28;20041;-59
2023/08/28 03:07:17;;;;;;;4.07;3.63;;;;;;;25.66;47.44;101371.00;20993284;28;20037;-59
2023/08/28 03:17:18;;;;;;;4.53;3.55;;;;;;;25.66;47.43;101385.88;20992627;28;20536;-59
2023/08/28 03:27:20;;;;;;;4.28;3.25;;;;;;;25.63;46.94;101394.88;20992350;28;20045;-59
2023/08/28 03:37:22;;;;;;;3.75;3.45;;;;;;;25.59;47.13;101399.41;21024743;28;20105;-59
2023/08/28 03:47:23;;;;;;;4.35;3.63;;;;;;;25.54;47.30;101397.50;21074109;28;20032;-58
2023/08/28 03:57:25;;;;;;;6.63;3.75;;;;;;;25.47;51.03;101385.00;21074978;28;20052;-61
2023/08/28 04:07:26;;;;;;;7.82;4.07;;;;;;;25.75;53.48;101381.25;21059399;28;20020;-59
2023/08/28 04:17:27;;;;;;;4.00;3.55;;;;;;;25.97;53.51;101369.41;21055742;28;20040;-59
2023/08/28 04:27:29;;;;;;;3.95;3.45;;;;;;;26.17;52.98;101370.25;21088016;28;20391;-60
2023/08/28 04:37:30;;;;;;;4.55;3.70;;;;;;;26.34;52.78;101359.25;21086498;28;20044;-59
2023/08/28 04:47:32;;;;;;;4.30;3.20;;;;;;;26.47;52.48;101363.25;21083531;28;20040;-59
2023/08/28 04:57:33;;;;;;;3.50;3.15;;;;;;;26.53;52.31;101362.06;21079712;28;20467;-59
2023/08/28 05:07:34;;;;;;;4.20;3.60;;;;;;;26.63;52.09;101364.66;21076957;28;20040;-59
2023/08/28 05:17:36;;;;;;;4.05;3.60;;;;;;;26.73;52.11;101372.06;21077669;28;20044;-59
2023/08/28 05:27:37;;;;;;;3.80;3.33;;;;;;;26.84;51.70;101374.31;21078043;28;20070;-59
2023/08/28 05:37:38;;;;;;;4.15;2.90;;;;;;;26.92;51.79;101377.56;21075071;28;20493;-60
2023/08/28 05:47:40;;;;;;;5.28;3.00;;;;;;;26.98;51.60;101367.88;21082590;28;20093;-60
2023/08/28 05:57:42;;;;;;;4.82;3.22;;;;;;;27.04;51.49;101373.09;21081988;28;20036;-62
2023/08/28 06:07:44;;;;;;;3.42;3.13;;;;;;;27.10;51.69;101379.47;21056395;28;20044;-60
2023/08/28 06:17:46;;;;;;;3.17;2.85;;;;;;;27.14;51.37;101374.91;20995331;28;20041;-60
2023/08/28 06:27:51;;;;;;;3.70;3.30;;;;;;;27.17;51.51;101382.72;20995073;28;20044;-60
2023/08/28 06:37:53;;;;;;;4.10;2.83;;;;;;;27.26;51.36;101383.63;20994822;28;20052;-59
2023/08/28 06:47:58;;;;;;;3.35;2.78;;;;;;;27.30;51.28;101373.41;20994946;28;20040;-58
2023/08/28 06:58:00;;;;;;;3.72;2.90;;;;;;;27.35;51.26;101390.19;20993536;28;20040;-60
2023/08/28 07:08:01;;;;;;;4.40;3.17;;;;;;;27.41;51.27;101392.88;21020118;28;20036;-60
2023/08/28 07:18:03;;;;;;;3.53;3.22;;;;;;;27.44;51.12;101383.78;21076453;28;20036;-60
2023/08/28 07:28:06;;;;;;;3.25;2.95;;;;;;;27.10;48.54;101399.13;21068725;28;20066;-60
2023/08/28 07:38:08;;;;;;;2.90;2.60;;;;;;;26.75;47.96;101398.66;21008169;28;20461;-59
2023/08/28 07:48:12;;;;;;;3.00;2.70;;;;;;;26.40;47.11;101371.25;21008399;28;20029;-60
2023/08/28 07:58:13;;;;;;;3.15;2.85;;;;;;;26.38;46.92;101407.16;21006865;28;20044;-59
2023/08/28 08:08:16;;;;;;;3.33;2.83;;;;;;;26.27;47.16;101393.31;21005511;28;20021;-59
2023/08/28 08:18:17;;;;;;;3.42;3.05;;;;;;;26.13;46.66;101398.06;21005297;28;20491;-58
2023/08/28 08:28:32;;;;;;;3.35;3.00;;;;;;;25.89;46.37;101391.69;21078317;28;20036;-59
2023/08/28 08:38:33;;;;;;;3.13;2.80;;;;;;;25.94;46.68;101414.06;21083248;28;20044;-60
2023/08/28 08:48:36;;;;;;;3.05;2.70;;;;;;;25.77;46.36;101412.63;21082339;28;20036;-61
2023/08/28 08:58:40;;;;;;;2.83;2.63;;;;;;;25.69;46.03;101415.25;21080708;28;20048;-60
2023/08/28 09:08:42;;;;;;;3.08;2.50;;;;;;;25.70;46.53;101405.69;21059519;28;20036;-59
2023/08/28 09:18:44;;;;;;;3.08;2.78;;;;;;;25.62;46.13;101407.22;21084675;28;20379;-59
2023/08/28 09:29:03;;;;;;;3.38;3.08;;;;;;;25.42;46.13;101415.88;21081268;28;20112;-60
2023/08/28 09:39:05;;;;;;;3.17;2.80;;;;;;;25.48;46.67;101425.91;21082918;28;20043;-59
2023/08/28 09:49:13;;;;;;;4.32;3.05;;;;;;;25.49;46.41;101445.22;21004527;28;20055;-61
2023/08/28 09:59:17;;;;;;;3.55;3.20;;;;;;;25.39;45.99;101436.94;21080846;28;20056;-61
2023/08/28 10:09:25;;;;;;;2.90;2.60;;;;;;;25.29;46.63;101423.06;21080888;28;20494;-60
2023/08/28 10:19:42;;;;;;;3.10;2.80;;;;;;;25.26;45.81;101441.31;21080399;28;20039;-61
2023/08/28 10:29:47;;;;;;;3.00;2.70;;;;;;;25.14;46.06;101432.47;21079483;28;20032;-59
2023/08/28 10:39:49;;;;;;;4.55;3.35;;;;;;;25.16;46.56;101449.84;21078002;28;20564;-62
2023/08/28 10:49:56;;;;;;;4.38;3.60;;;;;;;25.22;50.96;101450.59;21076379;28;20054;-60
2023/08/28 11:00:16;;;;;;;3.60;3.30;;;;;;;25.46;52.47;101462.63;21074947;28;20052;-58
2023/08/28 11:10:20;;;;;;;3.85;3.55;;;;;;;25.77;52.16;101496.72;21032522;28;20040;-59
2023/08/28 11:20:25;;;;;;;5.28;3.55;;;;;;;25.92;51.64;101497.66;21072221;28;20044;-61
2023/08/28 11:30:26;;;;;;;4.32;3.80;;;;;;;26.08;51.46;101519.56;21074416;28;20101;-60
2023/08/28 11:40:28;;;;;;;4.32;3.55;;;;;;;26.20;51.47;101505.09;21069705;28;20098;-60
2023/08/28 11:50:32;;;;;;;5.07;3.90;;;;;;;26.34;51.38;101522.84;21068821;28;20540;-59
2023/08/28 12:00:34;;;;;;;4.72;4.10;;;;;;;26.43;51.23;101519.31;21069750;28;20097;-59
2023/08/28 12:10:36;;;;;;;4.22;3.70;;;;;;;26.52;51.41;101511.91;21076352;28;20090;-59
2023/08/28 12:20:38;;;;;;;4.88;4.25;;;;;;;26.60;51.43;101512.06;21076926;28;20482;-59
2023/08/28 12:30:39;;;;;;;4.30;3.38;;;;;;;26.60;51.38;101498.03;21084935;28;20044;-58
2023/08/28 12:40:44;;;;;;;4.10;3.70;;;;;;;26.31;51.40;101439.28;21083282;28;20113;-59
2023/08/28 12:50:45;;;;;;;4.45;4.05;;;;;;;26.81;51.39;101526.59;21080078;28;20101;-59
2023/08/28 13:00:47;;;;;;;4.28;3.88;;;;;;;26.90;51.77;101535.16;21071196;28;20051;-59
2023/08/28 13:10:48;;;;;;;5.72;4.05;;;;;;;26.97;52.04;101543.16;21077825;28;20097;-59
2023/08/28 13:20:49;;;;;;;6.15;4.20;;;;;;;27.06;51.89;101547.78;21083207;28;20153;-60
2023/08/28 13:30:51;;;;;;;12.00;4.47;;;;;;;27.10;51.58;101539.59;21081761;28;20119;-59
2023/08/28 13:40:52;;;;;;;6.80;3.88;;;;;;;27.13;51.63;101530.56;21079055;28;20052;-61
2023/08/28 13:50:54;;;;;;;5.13;4.38;;;;;;;27.22;51.65;101539.94;21078291;28;20128;-59
2023/08/28 14:00:59;;;;;;;6.68;4.25;;;;;;;27.15;51.53;101514.22;21074980;28;20048;-59
2023/08/28 14:11:10;;;;;;;5.90;4.88;;;;;;;27.32;51.85;101536.94;21061890;28;20040;-61
2023/08/28 14:21:12;;;;;;;7.60;4.22;;;;;;;27.16;49.38;101532.72;21072456;28;20556;-60
2023/08/28 14:31:13;;;;;;;9.98;4.47;;;;;;;26.62;48.97;101537.03;21046982;28;20554;-59
2023/08/28 14:41:14;;;;;;;7.55;5.03;;;;;;;26.35;48.69;101535.72;21040829;28;20036;-60
2023/08/28 14:51:16;;;;;;;10.98;5.15;;;;;;;26.09;48.52;101531.63;21059008;28;20482;-59
2023/08/28 15:01:18;;;;;;;10.07;5.35;;;;;;;26.02;48.47;101540.41;21057928;28;20050;-60
2023/08/28 15:11:19;;;;;;;6.97;5.22;;;;;;;25.91;48.64;101533.28;21063978;28;20157;-58
2023/08/28 15:21:20;;;;;;;9.07;5.20;;;;;;;25.82;48.14;101527.50;21058799;28;20039;-61
2023/08/28 15:31:22;;;;;;;7.57;4.85;;;;;;;25.76;48.47;101528.72;21059972;28;20360;-59
2023/08/28 15:41:23;;;;;;;9.80;5.22;;;;;;;25.66;48.80;101540.03;21052291;28;20040;-60
2023/08/28 15:51:24;;;;;;;8.23;5.53;;;;;;;25.64;48.07;101541.44;21045957;28;20037;-59
2023/08/28 16:01:26;;;;;;;7.05;4.82;;;;;;;25.58;48.22;101538.69;21049217;28;20047;-59
2023/08/28 16:11:30;;;;;;;9.20;4.75;;;;;;;25.52;48.41;101527.84;21030413;28;20033;-60
2023/08/28 16:21:34;;;;;;;6.40;5.28;;;;;;;25.34;46.55;101509.84;21062379;28;20032;-60
2023/08/28 16:31:36;;;;;;;6.72;4.63;;;;;;;25.62;54.57;101505.31;21070134;28;20503;-59
2023/08/28 16:41:37;;;;;;;8.75;4.70;;;;;;;25.95;56.31;101497.88;21058829;28;20040;-60
2023/08/28 16:51:39;;;;;;;9.10;5.30;;;;;;;26.24;55.88;101478.09;21066800;28;20486;-60
2023/08/28 17:01:40;;;;;;;8.45;5.47;;;;;;;26.46;55.29;101485.91;21073405;28;20049;-60
2023/08/28 17:11:41;;;;;;;12.63;5.35;;;;;;;26.69;54.98;101483.28;21076741;28;20043;-59
2023/08/28 17:21:43;;;;;;;9.18;5.28;;;;;;;26.82;54.71;101493.72;21046154;28;20045;-59
2023/08/28 17:31:44;;;;;;;9.25;5.65;;;;;;;26.95;54.57;101489.28;21063214;28;20094;-59
2023/08/28 17:41:48;;;;;;;7.00;5.43;;;;;;;27.06;54.25;101488.78;21063579;28;20386;-59
2023/08/28 17:51:49;;;;;;;5.90;4.85;;;;;;;27.15;54.22;101466.44;21072390;28;20036;-59
2023/08/28 18:01:50;;;;;;;7.10;4.55;;;;;;;26.67;50.96;101463.97;21064825;28;20052;-63
2023/08/28 18:11:52;;;;;;;6.03;4.78;;;;;;;26.36;50.35;101472.84;21051500;28;20055;-60
2023/08/28 18:21:53;;;;;;;4.93;4.40;;;;;;;26.18;50.03;101468.09;21058371;28;20414;-58
2023/08/28 18:31:55;;;;;;;30.13;19.92;;;;;;;26.03;49.62;101476.75;21050342;28;20047;-59
2023/08/28 18:41:56;;;;;;;20.33;13.27;;;;;;;25.94;49.49;101478.56;21050081;28;20074;-59
2023/08/28 18:51:58;;;;;;;15.27;10.25;;;;;;;25.88;49.08;101479.75;21057015;28;20104;-58
2023/08/28 19:01:59;;;;;;;13.43;8.50;;;;;;;25.76;49.01;101471.81;21054794;28;20044;-59
2023/08/28 19:12:02;;;;;;;12.15;8.20;;;;;;;25.69;49.06;101472.13;21043992;27;20048;-59
2023/08/28 19:22:04;;;;;;;9.20;6.72;;;;;;;25.58;49.17;101465.00;21053109;28;20052;-59
2023/08/28 19:32:05;;;;;;;7.68;5.93;;;;;;;25.53;49.11;101451.91;21051145;28;20516;-59
2023/08/28 19:42:07;;;;;;;14.13;6.10;;;;;;;25.56;49.29;101453.25;21066730;28;20039;-59
2023/08/28 19:52:09;;;;;;;8.95;6.03;;;;;;;25.49;48.99;101447.19;21048656;28;20376;-59
2023/08/28 20:02:11;;;;;;;6.82;5.72;;;;;;;25.35;50.29;101453.53;21076034;28;20450;-59
2023/08/28 20:12:18;;;;;;;10.82;6.22;;;;;;;25.77;54.01;101449.06;21058425;28;20048;-60
2023/08/28 20:22:20;;;;;;;10.85;5.20;;;;;;;26.13;54.61;101459.78;21066743;28;20452;-59
2023/08/28 20:32:24;;;;;;;9.35;4.97;;;;;;;26.38;54.79;101447.28;21068270;28;20464;-59
2023/08/28 20:42:25;;;;;;;9.00;6.20;;;;;;;26.55;54.92;101446.75;21071749;28;20113;-59
2023/08/28 20:52:26;;;;;;;7.70;6.10;;;;;;;26.75;54.80;101471.66;21076419;28;20032;-60
2023/08/28 21:02:28;;;;;;;7.88;5.78;;;;;;;26.81;54.60;101464.81;21053248;28;20036;-60
2023/08/28 21:12:29;;;;;;;15.48;5.88;;;;;;;26.90;54.41;101466.94;21064313;28;20098;-59
2023/08/28 21:22:31;;;;;;;7.93;4.70;;;;;;;26.97;54.41;101470.97;21069397;28;20039;-59
2023/08/28 21:32:32;;;;;;;7.03;5.18;;;;;;;27.07;54.19;101490.44;21070733;28;20044;-59
2023/08/28 21:42:34;;;;;;;8.30;5.68;;;;;;;27.15;54.11;101486.13;21055745;28;20097;-59
2023/08/28 21:52:35;;;;;;;6.93;5.18;;;;;;;27.22;53.94;101483.75;21056973;28;20032;-59
2023/08/28 22:02:37;;;;;;;6.32;5.05;;;;;;;27.13;51.43;101482.81;21065818;28;20086;-59
2023/08/28 22:12:38;;;;;;;8.00;5.35;;;;;;;26.59;50.58;101457.06;21054328;28;20036;-62
2023/08/28 22:22:39;;;;;;;6.95;5.05;;;;;;;26.28;49.68;101442.69;21067307;28;20074;-59
2023/08/28 22:32:41;;;;;;;11.10;5.35;;;;;;;26.07;49.49;101439.38;21034946;28;20036;-60
2023/08/28 22:42:42;;;;;;;21.15;6.20;;;;;;;25.91;50.91;101437.09;21047880;28;20506;-60
2023/08/28 22:52:43;;;;;;;10.68;5.68;;;;;;;26.04;55.03;101444.75;21061951;28;20156;-59
2023/08/28 23:02:49;;;;;;;10.25;6.00;;;;;;;26.33;57.39;101442.59;21045052;28;20048;-59
2023/08/28 23:12:50;;;;;;;7.72;5.57;;;;;;;26.53;57.52;101447.09;21042941;28;20086;-59
2023/08/28 23:22:52;;;;;;;8.23;5.80;;;;;;;26.75;56.81;101429.53;21059710;28;20074;-59
2023/08/28 23:32:53;;;;;;;10.52;6.07;;;;;;;26.85;56.30;101437.78;21054809;28;20066;-58
2023/08/28 23:42:54;;;;;;;8.18;6.03;;;;;;;26.97;56.31;101439.25;21063418;28;20060;-59
2023/08/28 23:52:56;;;;;;;9.93;5.40;;;;;;;27.05;54.05;101442.19;21038460;28;20038;-58
